Texas Logo

South, TX Single Family Real Estate Listings

756 Total Real Estate Listings * Click on table heading to sort
Date Posted Property Type Style Address Price Living Area Lot Size Price/Sq Ft.
2017-06-25 Single Family Traditional 5837 Westhaven Drive Fort Worth, TX 76132 $105,900 1,209 sq. ft. 10,890 sq. ft. $88
2017-06-25 Single Family Traditional 4837 River View Drive Fort Worth, TX 76132 $549,500 3,289 sq. ft. 16,553 sq. ft. $167
2017-06-24 Single Family 5209 Fallworth Court Fort Worth, TX 76133 $149,900 1,392 sq. ft. 9,583 sq. ft. $108
2017-06-24 Single Family Traditional 5316 Wooten Drive Fort Worth, TX 76133 $225,000 2,283 sq. ft. 12,197 sq. ft. $99
2017-06-24 Single Family Traditional 7904 Gladewater Drive Fort Worth, TX 76134 $156,995 2,122 sq. ft. 6,534 sq. ft. $74
2017-06-24 Single Family Traditional 3208 Highlawn Terrace Fort Worth, TX 76133 $115,000 1,013 sq. ft. 6,970 sq. ft. $114
2017-06-24 Single Family Tudor 3332 8th Avenue Fort Worth, TX 76110 $159,900 1,264 sq. ft. 6,098 sq. ft. $126
2017-06-24 Single Family Traditional 4728 Edenwood Drive Fort Worth, TX 76123 $305,900 3,541 sq. ft. 10,890 sq. ft. $86
2017-06-23 Single Family 5628 Woodway Drive Fort Worth, TX 76133 $189,900 2,064 sq. ft. 10,454 sq. ft. $92
2017-06-23 Single Family Traditional 3400 Binyon Avenue Fort Worth, TX 76133 $135,000 1,524 sq. ft. 8,276 sq. ft. $89
2017-06-23 Single Family Traditional 4521 Harwen Terrace Fort Worth, TX 76133 $79,000 1,646 sq. ft. 6,970 sq. ft. $48
2017-06-23 Single Family 3121 Biddison Street Fort Worth, TX 76109 $365,000 1,595 sq. ft. 8,276 sq. ft. $229
2017-06-23 Single Family Split Level 8208 Autumn Creek Trail Fort Worth, TX 76134 $187,500 2,995 sq. ft. 5,663 sq. ft. $63
2017-06-23 Single Family Traditional 5313 Wolens Way Fort Worth, TX 76133 $101,000 1,409 sq. ft. 10,019 sq. ft. $72
2017-06-23 Single Family Traditional 2505 Country Creek Lane Fort Worth, TX 76123 $157,000 1,940 sq. ft. 6,534 sq. ft. $81
2017-06-23 Single Family Traditional 6037 Forest Highlands Drive Fort Worth, TX 76132 $999,000 7,050 sq. ft. 14,375 sq. ft. $142
2017-06-23 Single Family Contemporary/Modern 1520 Willow Park Drive Fort Worth, TX 76134 $149,000 1,573 sq. ft. 7,405 sq. ft. $95
2017-06-23 Single Family 7517 Fallen Trail Fort Worth, TX 76123 $162,000 1,260 sq. ft. 5,663 sq. ft. $129
2017-06-23 Single Family 4616 Pine Ridge Lane Fort Worth, TX 76123 $235,000 2,806 sq. ft. 6,970 sq. ft. $84
2017-06-23 Single Family Traditional 4733 South Drive Fort Worth, TX 76132 $169,000 1,525 sq. ft. 8,712 sq. ft. $111
2017-06-23 Single Family Contemporary/Modern 1425 Oak Grove Road Fort Worth, TX 76134 $138,000 1,196 sq. ft. 10,019 sq. ft. $115
2017-06-23 Single Family Traditional 3741 Willomet Avenue Fort Worth, TX 76133 $119,900 1,348 sq. ft. 11,761 sq. ft. $89
2017-06-23 Single Family Mid-Century Modern 4309 Westdale Drive Fort Worth, TX 76109 $415,000 2,112 sq. ft. 15,682 sq. ft. $196
2017-06-23 Single Family Traditional 7228 Johnstone Lane Fort Worth, TX 76133 $299,000 2,809 sq. ft. 16,988 sq. ft. $106
2017-06-23 Single Family Colonial 3909 Westcliff Road Fort Worth, TX 76109 $995,000 3,017 sq. ft. 18,731 sq. ft. $330
2017-06-23 Single Family Traditional 2801 Forest Creek Drive Fort Worth, TX 76123 $169,999 1,792 sq. ft. 8,276 sq. ft. $95
2017-06-23 Single Family 5300 Wolens Way Fort Worth, TX 76133 $170,000 1,620 sq. ft. 10,019 sq. ft. $105
2017-06-22 Single Family Craftsman 1905 Adams Street Fort Worth, TX 76110 $250,000 1,258 sq. ft. 4,792 sq. ft. $199
2017-06-22 Single Family Traditional 3805 Willomet Avenue Fort Worth, TX 76133 $174,900 1,430 sq. ft. 11,761 sq. ft. $122
2017-06-22 Single Family 3408 Lawndale Avenue Fort Worth, TX 76133 $249,500 2,308 sq. ft. 10,890 sq. ft. $108
2017-06-22 Single Family 2625 Greene Avenue Fort Worth, TX 76109 $649,000 2,252 sq. ft. 7,841 sq. ft. $288
2017-06-22 Single Family Traditional 7429 Summer Meadows Drive Fort Worth, TX 76123 $230,000 2,738 sq. ft. 6,970 sq. ft. $84
2017-06-22 Single Family Split Level 7861 Mahonia Drive Fort Worth, TX 76133 $194,900 2,136 sq. ft. 6,970 sq. ft. $91
2017-06-22 Single Family Fort Worth, TX $459,000 1,740 sq. ft. 9,148 sq. ft. $264
2017-06-22 Single Family Traditional 4921 Ridge Terrace Fort Worth, TX 76133 $209,800 1,905 sq. ft. 14,375 sq. ft. $110
2017-06-22 Single Family Traditional 6829 Lahontan Drive Fort Worth, TX 76132 $1,399,000 8,016 sq. ft. 28,314 sq. ft. $175
2017-06-22 Single Family Ranch; Traditional 4308 Inwood Road Fort Worth, TX 76109 $369,500 2,390 sq. ft. 13,068 sq. ft. $155
2017-06-22 Single Family Traditional 1116 Hawthorne Avenue Fort Worth, TX 76110 $255,000 1,200 sq. ft. 5,227 sq. ft. $212
2017-06-22 Single Family Traditional 3304 Marquette Court Fort Worth, TX 76109 $665,000 2,678 sq. ft. 11,761 sq. ft. $248
2017-06-22 Single Family Traditional 4921 Stadium Drive Fort Worth, TX 76133 $156,300 1,881 sq. ft. 8,712 sq. ft. $83
2017-06-22 Single Family Traditional 4820 Darla Drive Fort Worth, TX 76132 $339,000 2,791 sq. ft. 15,682 sq. ft. $121
2017-06-22 Single Family Traditional 1016 Buffalo Springs Drive Fort Worth, TX 76140 $135,000 1,265 sq. ft. 6,534 sq. ft. $107
2017-06-22 Single Family Traditional 3745 Glenmont Drive Fort Worth, TX 76133 $149,900 2,440 sq. ft. 10,019 sq. ft. $61
2017-06-22 Single Family Contemporary/Modern 7636 Rainbow Creek Drive Fort Worth, TX 76123 $175,000 1,912 sq. ft. 5,227 sq. ft. $92
2017-06-22 Single Family 516 Robert Street Fort Worth, TX 76104 $150,000 1,473 sq. ft. 6,534 sq. ft. $102
2017-06-21 Single Family Traditional 5425 Appalachian Way Fort Worth, TX 76123 $210,000 1,951 sq. ft. 6,534 sq. ft. $108
2017-06-21 Single Family 12429 Seven Eagles Lane Fort Worth, TX 76028 $167,500 1,620 sq. ft. 5,663 sq. ft. $103
2017-06-21 Single Family Ranch 7309 Rock Garden Trail Fort Worth, TX 76123 $154,900 1,618 sq. ft. 5,663 sq. ft. $96
2017-06-21 Single Family Craftsman; Traditional 2458 Denbury Drive Fort Worth, TX 76133 $164,900 1,431 sq. ft. 8,276 sq. ft. $115
2017-06-21 Single Family Traditional 7613 Ramble Wood Trail Fort Worth, TX 76132 $305,000 2,124 sq. ft. 8,712 sq. ft. $144
2017-06-21 Single Family 3221 Lubbock Avenue Fort Worth, TX 76109 $195,000 1,252 sq. ft. 6,098 sq. ft. $156
2017-06-21 Single Family Fort Worth, TX $83,000 1,913 sq. ft. 7,841 sq. ft. $43
2017-06-21 Single Family Traditional 4601 Belladonna Drive Fort Worth, TX 76123 $239,000 2,449 sq. ft. 6,534 sq. ft. $98
2017-06-21 Single Family Traditional 2117 Deniro Drive Fort Worth, TX 76134 $180,000 2,417 sq. ft. 4,792 sq. ft. $74
2017-06-21 Single Family Traditional 1409 Whittenburg Drive Fort Worth, TX 76134 $134,990 1,536 sq. ft. 7,405 sq. ft. $88
2017-06-21 Single Family Mid-Century Modern; Ranch 4109 Ranier Court Fort Worth, TX 76109 $674,000 2,845 sq. ft. 56,628 sq. ft. $237
2017-06-21 Single Family Traditional; Tudor 3917 Claridge Court Fort Worth, TX 76109 $969,000 4,375 sq. ft. 9,148 sq. ft. $221
2017-06-21 Single Family Traditional 4320 Kirkland Drive Fort Worth, TX 76109 $449,000 2,864 sq. ft. 17,860 sq. ft. $157
2017-06-21 Single Family Traditional 5313 Hensley Drive Fort Worth, TX 76134 $95,000 1,114 sq. ft. 8,712 sq. ft. $85
2017-06-21 Single Family 5204 Keswick Avenue Fort Worth, TX 76133 $159,000 1,456 sq. ft. 10,454 sq. ft. $109
2017-06-21 Single Family Traditional 220 Chalk Mountain Drive Fort Worth, TX 76140 $150,000 1,513 sq. ft. 6,098 sq. ft. $99
2017-06-21 Single Family 3831 Winslow Drive Fort Worth, TX 76109 $545,000 2,498 sq. ft. 20,909 sq. ft. $218
2017-06-21 Single Family 1501 Biddison Street Fort Worth, TX 76110 $135,000 1,238 sq. ft. 7,405 sq. ft. $109
2017-06-20 Single Family 2920 Ryan Avenue Fort Worth, TX 76110 $185,000 1,688 sq. ft. 6,098 sq. ft. $110
2017-06-20 Single Family 6450 Stephenson Levy Road Fort Worth, TX 76140 $350,000 3,085 sq. ft. 87,120 sq. ft. $113
2017-06-20 Single Family Traditional 4712 Shady Ridge Court Fort Worth, TX 76109 $759,579 3,003 sq. ft. 4,792 sq. ft. $253
2017-06-20 Single Family Traditional 8525 Meadow Sweet Lane Fort Worth, TX 76123 $250,000 2,250 sq. ft. 5,663 sq. ft. $111
2017-06-20 Single Family Traditional 5124 Breezewind Lane Fort Worth, TX 76123 $343,990 3,323 sq. ft. 7,405 sq. ft. $104
2017-06-20 Single Family 2001 Hurley Avenue Fort Worth, TX 76110 $349,000 1,932 sq. ft. 6,970 sq. ft. $181
2017-06-20 Single Family Traditional 4267 Balboa Drive Fort Worth, TX 76133 $259,000 2,685 sq. ft. 13,939 sq. ft. $96
2017-06-20 Single Family A-Frame 4517 Pine Grove Lane Fort Worth, TX 76123 $229,900 2,302 sq. ft. 7,405 sq. ft. $100
2017-06-20 Single Family Traditional 3404 Cromart Avenue Fort Worth, TX 76133 $157,900 1,369 sq. ft. 9,583 sq. ft. $115
2017-06-20 Single Family A-Frame 5309 Summer Court Fort Worth, TX 76123 $224,900 2,443 sq. ft. 9,148 sq. ft. $92
2017-06-20 Single Family 4016 Country Lane Fort Worth, TX 76123 $165,000 2,099 sq. ft. 6,534 sq. ft. $79
2017-06-19 Single Family Traditional 8532 Cove Meadow Lane Fort Worth, TX 76123 $152,000 1,761 sq. ft. 6,534 sq. ft. $86
2017-06-19 Single Family Contemporary/Modern 1329 Stafford Drive Fort Worth, TX 76134 $239,999 1,710 sq. ft. 10,019 sq. ft. $140
2017-06-19 Single Family Traditional 6601 Sabrosa Court Fort Worth, TX 76133 $229,800 2,412 sq. ft. 12,632 sq. ft. $95
2017-06-19 Single Family Craftsman 2014 5th Avenue Fort Worth, TX 76110 $605,000 2,344 sq. ft. 6,534 sq. ft. $258
2017-06-19 Single Family Traditional 6908 Wilton Drive Fort Worth, TX 76133 $205,000 2,085 sq. ft. 10,890 sq. ft. $98
2017-06-19 Single Family Ranch 3566 Winston Road Fort Worth, TX 76109 $295,000 1,898 sq. ft. 7,841 sq. ft. $155
2017-06-19 Single Family Traditional 7009 Brookvale Road Fort Worth, TX 76132 $315,000 2,228 sq. ft. 9,148 sq. ft. $141
2017-06-19 Single Family Traditional 3608 Cotton Creek Lane Fort Worth, TX 76123 $150,000 1,699 sq. ft. 6,098 sq. ft. $88
2017-06-19 Single Family Traditional 4500 Riveridge Drive Fort Worth, TX 76109 $535,000 2,291 sq. ft. 13,068 sq. ft. $234
2017-06-19 Single Family Traditional 5000 Cordova Avenue Fort Worth, TX 76132 $200,000 1,752 sq. ft. 10,454 sq. ft. $114
2017-06-19 Single Family Ranch 6208 Whitman Avenue Fort Worth, TX 76133 $170,000 2,329 sq. ft. 13,068 sq. ft. $73
2017-06-19 Single Family 3813 Fairhaven Drive Fort Worth, TX 76123 $194,900 2,666 sq. ft. 6,534 sq. ft. $73
2017-06-19 Single Family 9108 Penny Lane Fort Worth, TX 76123 $154,900 1,413 sq. ft. 8,712 sq. ft. $110
2017-06-19 Single Family 6733 Audubon Trail Fort Worth, TX 76132 $319,990 3,320 sq. ft. 9,583 sq. ft. $96
2017-06-18 Single Family Traditional 5508 Wales Avenue Fort Worth, TX 76133 $150,000 1,480 sq. ft. 12,632 sq. ft. $101
2017-06-17 Single Family 8804 Guard Hill Drive Fort Worth, TX 76123 $188,000 1,771 sq. ft. 6,098 sq. ft. $106
2017-06-17 Single Family Traditional 1508 Clarendon Street Fort Worth, TX 76134 $137,000 1,542 sq. ft. 6,098 sq. ft. $89
2017-06-17 Single Family 2808 Yates Street Fort Worth, TX 76133 $212,000 2,316 sq. ft. 10,019 sq. ft. $92
2017-06-17 Single Family 1048 Meadow Scape Drive Fort Worth, TX 76028 $189,500 1,587 sq. ft. 6,970 sq. ft. $119
2017-06-17 Single Family Craftsman 1968 Alston Avenue Fort Worth, TX 76110 $425,000 2,269 sq. ft. 4,356 sq. ft. $187
2017-06-17 Single Family Craftsman 1912 Alston Avenue Fort Worth, TX 76110 $335,000 1,464 sq. ft. 4,792 sq. ft. $229
2017-06-17 Single Family Traditional Fort Worth, TX $220,000 2,150 sq. ft. 10,454 sq. ft. $102
2017-06-17 Single Family Traditional 8801 Pitchfork Ranch Road Fort Worth, TX 76134 $176,500 1,749 sq. ft. 6,534 sq. ft. $101
2017-06-17 Single Family Traditional; Tudor 2729 Merida Avenue Fort Worth, TX 76109 $369,900 1,700 sq. ft. 6,098 sq. ft. $218
2017-06-17 Single Family 5309 Rutland Avenue Fort Worth, TX 76133 $169,500 1,846 sq. ft. 8,276 sq. ft. $92
2017-06-17 Single Family Traditional 8505 Cedar Brush Court Fort Worth, TX 76123 $289,900 3,554 sq. ft. 11,326 sq. ft. $82
2017-06-17 Single Family Traditional 5317 Hayloft Court Fort Worth, TX 76123 $283,900 3,034 sq. ft. 6,534 sq. ft. $94
2017-06-16 Single Family 4320 Lake Stone Trail Fort Worth, TX 76123 $255,000 2,986 sq. ft. 5,663 sq. ft. $85
2017-06-16 Single Family Traditional 1420 Nelson Place Fort Worth, TX 76028 $179,900 1,851 sq. ft. 6,534 sq. ft. $97
2017-06-16 Single Family Contemporary/Modern 5925 Rayburn Drive Fort Worth, TX 76133 $240,000 2,257 sq. ft. 11,326 sq. ft. $106
2017-06-16 Single Family Traditional 4332 Bilglade Road Fort Worth, TX 76109 $385,000 2,718 sq. ft. 11,326 sq. ft. $142
2017-06-16 Single Family Traditional 4605 Marguerite Lane Fort Worth, TX 76123 $219,900 2,630 sq. ft. 7,405 sq. ft. $84
2017-06-16 Single Family Ranch 1501 Royster Road Fort Worth, TX 76134 $155,000 2,073 sq. ft. 9,148 sq. ft. $75
2017-06-16 Single Family Traditional 416 Roundrock Lane Fort Worth, TX 76140 $230,000 3,444 sq. ft. 6,970 sq. ft. $67
2017-06-16 Single Family Traditional 7932 Colfax Lane Fort Worth, TX 76134 $110,000 864 sq. ft. 7,405 sq. ft. $127
2017-06-16 Single Family Traditional 6604 Pine Valley Place Fort Worth, TX 76132 $1,049,000 5,526 sq. ft. 17,424 sq. ft. $190
2017-06-16 Single Family Traditional 8941 Preakness Circle Fort Worth, TX 76123 $199,950 2,356 sq. ft. $85
2017-06-16 Single Family Traditional 233 Blairwood Drive Fort Worth, TX 76134 $165,900 1,904 sq. ft. 5,663 sq. ft. $87
2017-06-16 Single Family Traditional 1212 Edney Street Fort Worth, TX 76115 $140,000 956 sq. ft. 8,276 sq. ft. $146
2017-06-16 Single Family 5809 Rayburn Drive Fort Worth, TX 76133 $215,000 2,064 sq. ft. 11,326 sq. ft. $104
2017-06-16 Single Family Traditional 3821 Huntwick Drive Fort Worth, TX 76123 $159,900 1,501 sq. ft. 6,098 sq. ft. $107
2017-06-16 Single Family Traditional 2836 Oakbriar Trail Fort Worth, TX 76109 $520,000 2,499 sq. ft. 8,276 sq. ft. $208
2017-06-16 Single Family Traditional 2501 Harvest Moon Drive Fort Worth, TX 76123 $198,500 2,368 sq. ft. 7,841 sq. ft. $84
2017-06-16 Single Family Traditional 4853 Star Ridge Drive Fort Worth, TX 76133 $169,999 1,780 sq. ft. 4,792 sq. ft. $96
2017-06-16 Single Family Traditional 6667 Laurel Valley Drive Fort Worth, TX 76132 $1,174,900 6,340 sq. ft. 20,473 sq. ft. $185
2017-06-16 Single Family 3316 Steamboat Drive Fort Worth, TX 76123 $145,900 1,472 sq. ft. 13,068 sq. ft. $99
2017-06-15 Single Family Traditional 7001 Meadowside Road Fort Worth, TX 76132 $265,000 1,992 sq. ft. 9,583 sq. ft. $133
2017-06-15 Single Family 2700 Ryan Place Drive Fort Worth, TX 76110 $279,900 1,366 sq. ft. 6,970 sq. ft. $205
2017-06-15 Single Family Traditional 2641 Forest Park Boulevard Fort Worth, TX 76110 $250,000 1,167 sq. ft. 6,098 sq. ft. $214
2017-06-15 Single Family Traditional 4362 Lanark Avenue Fort Worth, TX 76109 $449,900 2,520 sq. ft. 13,504 sq. ft. $179
2017-06-15 Single Family 7520 Mayfair Circle Fort Worth, TX 76123 $184,900 2,102 sq. ft. 9,583 sq. ft. $88
2017-06-15 Single Family Prairie 2224 Hurley Avenue Fort Worth, TX 76110 $259,069 1,530 sq. ft. 6,970 sq. ft. $169
2017-06-15 Single Family Traditional 5716 Walla Avenue Fort Worth, TX 76133 $147,000 1,520 sq. ft. 9,583 sq. ft. $97
2017-06-15 Single Family Traditional 5621 Wharton Drive Fort Worth, TX 76133 $269,000 2,954 sq. ft. 14,375 sq. ft. $91
2017-06-15 Single Family 7294 Church Park Drive Fort Worth, TX 76133 $169,999 1,618 sq. ft. 5,663 sq. ft. $105
2017-06-15 Single Family Traditional 4658 Slippery Rock Drive Fort Worth, TX 76123 $260,000 3,436 sq. ft. 9,148 sq. ft. $76
2017-06-15 Single Family 5224 Partridge Road Fort Worth, TX 76132 $325,000 2,900 sq. ft. 17,860 sq. ft. $112
2017-06-15 Single Family Mediterranean; Traditional 6816 Shadow Creek Court Fort Worth, TX 76132 $725,000 3,461 sq. ft. 18,731 sq. ft. $209
2017-06-15 Single Family Traditional 5004 Breezewind Lane Fort Worth, TX 76123 $195,900 2,113 sq. ft. 7,405 sq. ft. $93
2017-06-14 Single Family Tudor 1924 Forest Park Boulevard Fort Worth, TX 76110 $474,800 2,540 sq. ft. 8,276 sq. ft. $187
2017-06-14 Single Family 6816 River Bend Road Fort Worth, TX 76132 $665,000 4,646 sq. ft. 13,068 sq. ft. $143
2017-06-14 Single Family Traditional 709 Crockett Drive Fort Worth, TX 76028 $249,000 1,508 sq. ft. 23,958 sq. ft. $165
2017-06-14 Single Family Traditional 8305 Autumn Creek Trail Fort Worth, TX 76134 $149,900 1,682 sq. ft. 5,663 sq. ft. $89
2017-06-14 Single Family Traditional 4737 Slippery Rock Drive Fort Worth, TX 76123 $294,500 3,652 sq. ft. 8,712 sq. ft. $81
2017-06-14 Single Family 101 Valera Court Fort Worth, TX 76134 $162,900 1,563 sq. ft. 9,148 sq. ft. $104
2017-06-14 Single Family Traditional 2632 Dahlia Drive Fort Worth, TX 76123 $154,900 1,624 sq. ft. 6,098 sq. ft. $95
2017-06-14 Single Family Traditional 3216 Waits Avenue Fort Worth, TX 76109 $295,000 1,216 sq. ft. 6,098 sq. ft. $243
2017-06-14 Single Family 501 Noble Grove Lane Fort Worth, TX 76140 $203,000 2,680 sq. ft. 6,534 sq. ft. $76
2017-06-14 Single Family Traditional 5916 Walla Avenue Fort Worth, TX 76133 $205,000 1,942 sq. ft. 10,454 sq. ft. $106
2017-06-14 Single Family Traditional 4208 Glenwood Drive Fort Worth, TX 76109 $589,000 2,977 sq. ft. 11,326 sq. ft. $198
2017-06-14 Single Family Ranch 2366 Laurelhill Lane Fort Worth, TX 76133 $132,000 1,268 sq. ft. 4,792 sq. ft. $104
2017-06-14 Single Family Fort Worth, TX $112,500 1,297 sq. ft. 8,276 sq. ft. $87
2017-06-14 Single Family Traditional 3808 Trail Lake Drive Fort Worth, TX 76109 $320,000 1,808 sq. ft. 15,246 sq. ft. $177
2017-06-14 Single Family Mid-Century Modern; Ranch 4405 Dunwick Lane Fort Worth, TX 76109 $775,000 3,575 sq. ft. 17,424 sq. ft. $217
2017-06-14 Single Family Traditional 7812 Burgundy Drive Fort Worth, TX 76133 $139,900 1,760 sq. ft. 9,148 sq. ft. $79
2017-06-14 Single Family Traditional 3516 Wooten Drive Fort Worth, TX 76133 $168,000 1,759 sq. ft. 9,583 sq. ft. $96
2017-06-14 Single Family 3428 Main Street Fort Worth, TX 76110 $95,000 952 sq. ft. 6,098 sq. ft. $100
2017-06-13 Single Family Traditional 2016 Matador Ranch Road Fort Worth, TX 76134 $169,000 1,788 sq. ft. 4,792 sq. ft. $95
2017-06-13 Single Family Traditional 8624 Fernhill Drive Fort Worth, TX 76123 $193,000 2,290 sq. ft. 5,663 sq. ft. $84
2017-06-13 Single Family Traditional 8317 Rock Canyon Court Fort Worth, TX 76123 $219,900 2,268 sq. ft. 6,970 sq. ft. $97
2017-06-13 Single Family Traditional 3617 Rogers Avenue Fort Worth, TX 76109 $399,900 2,029 sq. ft. $197
2017-06-13 Single Family 516 Noble Grove Lane Fort Worth, TX 76140 $161,000 1,661 sq. ft. 6,098 sq. ft. $97
2017-06-13 Single Family Traditional 2900 Forest Park Boulevard Fort Worth, TX 76110 $350,000 1,131 sq. ft. 6,098 sq. ft. $309
2017-06-13 Single Family 1921A Washington Avenue Fort Worth, TX 76110 $455,246 2,113 sq. ft. $215
2017-06-12 Single Family 1719 Belzise Terrace Fort Worth, TX 76104 $38,900 960 sq. ft. 6,534 sq. ft. $41
2017-06-12 Single Family Traditional 4928 Westbriar Drive Fort Worth, TX 76109 $875,000 3,684 sq. ft. 5,663 sq. ft. $238
2017-06-12 Single Family Traditional 1700 Willow Park Drive Fort Worth, TX 76134 $179,900 1,397 sq. ft. 7,841 sq. ft. $129
2017-06-12 Single Family Traditional 8204 Rain Dance Court Fort Worth, TX 76123 $325,000 3,316 sq. ft. 9,583 sq. ft. $98
2017-06-12 Single Family Traditional 5008 Monarda Way Fort Worth, TX 76123 $289,500 3,909 sq. ft. 10,019 sq. ft. $74
2017-06-12 Single Family Traditional 3521 Hilltop Road Fort Worth, TX 76109 $419,000 1,882 sq. ft. 10,454 sq. ft. $223
2017-06-12 Single Family 3228 Roddy Drive Fort Worth, TX 76123 $189,900 2,583 sq. ft. 7,405 sq. ft. $74
2017-06-12 Single Family Traditional 3864 Country Lane Fort Worth, TX 76123 $150,000 1,896 sq. ft. 6,534 sq. ft. $79
2017-06-11 Single Family Traditional 151 Chateau Drive Fort Worth, TX 76134 $215,000 2,609 sq. ft. 12,197 sq. ft. $82
2017-06-10 Single Family Ranch 2721 Harlanwood Drive Fort Worth, TX 76109 $535,000 2,535 sq. ft. 10,454 sq. ft. $211
2017-06-10 Single Family Traditional 3609 Saint Louis Avenue Fort Worth, TX 76110 $127,000 1,376 sq. ft. 6,098 sq. ft. $92
2017-06-10 Single Family Traditional 6408 Welch Avenue Fort Worth, TX 76133 $210,000 2,112 sq. ft. 12,197 sq. ft. $99
2017-06-10 Single Family Contemporary/Modern; Mid-Century Modern 6208 Toscana Circle Fort Worth, TX 76140 $592,725 3,674 sq. ft. 50,530 sq. ft. $161
2017-06-09 Single Family Traditional 1152 Elva Warren Street Fort Worth, TX 76115 $550,000 1,358 sq. ft. 339,768 sq. ft. $405
2017-06-09 Single Family Traditional 6821 Glen Meadow Drive Fort Worth, TX 76132 $419,000 3,483 sq. ft. 11,326 sq. ft. $120
2017-06-09 Single Family 4656 Poplar Ridge Drive Fort Worth, TX 76123 $309,900 4,076 sq. ft. 10,019 sq. ft. $76
2017-06-09 Single Family Ranch; Traditional 4017 El Cid Place Fort Worth, TX 76133 $169,900 1,793 sq. ft. 9,583 sq. ft. $95
2017-06-09 Single Family Traditional 4200 Hildring Drive Fort Worth, TX 76109 $729,900 3,897 sq. ft. 15,682 sq. ft. $187
2017-06-09 Single Family Traditional 2716 Ryan Place Drive Fort Worth, TX 76110 $335,000 1,656 sq. ft. 8,276 sq. ft. $202
2017-06-09 Single Family Traditional 5625 Ledgestone Drive Fort Worth, TX 76132 $279,900 2,650 sq. ft. 15,246 sq. ft. $106
2017-06-09 Single Family Traditional 8601 Balwood Drive Fort Worth, TX 76134 $171,500 2,213 sq. ft. 6,970 sq. ft. $78
2017-06-09 Single Family Traditional 8017 Belladonna Drive Fort Worth, TX 76123 $215,000 2,135 sq. ft. 6,098 sq. ft. $101
2017-06-09 Single Family Traditional 4749 Edenwood Drive Fort Worth, TX 76123 $272,700 3,252 sq. ft. 9,148 sq. ft. $84
2017-06-09 Single Family Traditional 4828 Overton Avenue Fort Worth, TX 76133 $199,000 1,615 sq. ft. 10,454 sq. ft. $123
2017-06-09 Single Family Traditional 6716 Clear Spring Drive Fort Worth, TX 76132 $479,900 3,473 sq. ft. 11,326 sq. ft. $138
2017-06-09 Single Family Traditional 4216 Selkirk Drive Fort Worth, TX 76109 $280,000 1,567 sq. ft. 9,583 sq. ft. $179
2017-06-09 Single Family Traditional 5009 Mountain Spring Trail Fort Worth, TX 76123 $129,900 1,583 sq. ft. 2,614 sq. ft. $82
2017-06-09 Single Family Ranch; Traditional 3712 South Hills Avenue Fort Worth, TX 76109 $555,000 2,451 sq. ft. 12,197 sq. ft. $226
2017-06-09 Single Family Traditional 7020 Brierhollow Court Fort Worth, TX 76132 $419,900 3,012 sq. ft. 9,148 sq. ft. $139
2017-06-09 Single Family 3709 Winslow Drive Fort Worth, TX 76109 $339,900 2,323 sq. ft. 11,761 sq. ft. $146
2017-06-09 Single Family Traditional 1116 Mckavett Drive Fort Worth, TX 76140 $159,900 1,728 sq. ft. 15,246 sq. ft. $93
2017-06-09 Single Family Traditional 517 Autumn Park Fort Worth, TX 76140 $219,900 3,225 sq. ft. 6,534 sq. ft. $68
2017-06-09 Single Family Traditional 4244 Bridgestone Drive Fort Worth, TX 76123 $220,000 2,456 sq. ft. 6,098 sq. ft. $90
2017-06-09 Single Family Traditional 7625 Brook Meadow Lane Fort Worth, TX 76133 $254,000 3,494 sq. ft. 7,405 sq. ft. $73
2017-06-09 Single Family Traditional 325 Allenwood Drive Fort Worth, TX 76134 $150,000 1,659 sq. ft. 5,663 sq. ft. $90
2017-06-09 Single Family Traditional 3701 Wayland Drive Fort Worth, TX 76133 $195,000 1,880 sq. ft. 5,227 sq. ft. $104
2017-06-08 Single Family Traditional 7913 Camelot Road Fort Worth, TX 76134 $145,000 1,523 sq. ft. 6,970 sq. ft. $95
2017-06-08 Single Family 3974 Colorado Springs Drive Fort Worth, TX 76123 $170,000 1,974 sq. ft. 6,534 sq. ft. $86
2017-06-08 Single Family 2510 Wabash Avenue Fort Worth, TX 76109 $487,500 2,148 sq. ft. 8,276 sq. ft. $227
2017-06-08 Single Family Traditional 2828 Livingston Avenue Fort Worth, TX 76110 $250,000 2,206 sq. ft. 6,098 sq. ft. $113
2017-06-08 Single Family Traditional Fort Worth, TX $180,000 2,065 sq. ft. 6,534 sq. ft. $87
2017-06-08 Single Family Traditional 309 Victorian Drive Fort Worth, TX 76134 $130,000 1,706 sq. ft. 9,583 sq. ft. $76
2017-06-08 Single Family Traditional 1128 Manhassett Court Fort Worth, TX 76140 $184,990 1,759 sq. ft. 8,712 sq. ft. $105
2017-06-08 Single Family Ranch 5500 Wheaton Drive Fort Worth, TX 76133 $105,000 1,424 sq. ft. 9,148 sq. ft. $74
2017-06-08 Single Family Traditional 501 Fawn Meadow Drive Fort Worth, TX 76140 $199,999 2,780 sq. ft. 7,405 sq. ft. $72
2017-06-07 Single Family Tudor 2601 Waits Avenue Fort Worth, TX 76109 $499,900 2,267 sq. ft. 10,454 sq. ft. $221
2017-06-07 Single Family Traditional 4451 Cardiff Avenue Fort Worth, TX 76133 $274,999 2,442 sq. ft. 12,197 sq. ft. $113
2017-06-07 Single Family Traditional 4852 Courtside Drive Fort Worth, TX 76133 $219,900 2,029 sq. ft. 5,663 sq. ft. $108
2017-06-07 Single Family Traditional 7504 Rall Circle Fort Worth, TX 76132 $354,600 2,778 sq. ft. 9,148 sq. ft. $128
2017-06-07 Single Family Traditional 2709 Mission Street Fort Worth, TX 76109 $335,000 1,726 sq. ft. 6,970 sq. ft. $194
2017-06-07 Single Family 7816 Brook Meadow Lane Fort Worth, TX 76133 $245,000 3,018 sq. ft. 7,405 sq. ft. $81
2017-06-07 Single Family Traditional 6836 Trinity Landing Drive Fort Worth, TX 76132 $649,900 4,524 sq. ft. 21,780 sq. ft. $144
2017-06-07 Single Family Traditional 4205 Bilglade Road Fort Worth, TX 76109 $385,000 2,303 sq. ft. 12,632 sq. ft. $167
2017-06-06 Single Family Traditional 1521 Lincolnshire Way Fort Worth, TX 76134 $135,000 1,554 sq. ft. 5,663 sq. ft. $87
2017-06-06 Single Family Mediterranean 2505 Rogers Avenue Fort Worth, TX 76109 $585,000 2,995 sq. ft. 4,356 sq. ft. $195
2017-06-06 Single Family 8505 Tallahassee Lane Fort Worth, TX 76123 $132,000 1,248 sq. ft. 3,920 sq. ft. $106
2017-06-06 Single Family 8221 Cutter Hill Avenue Fort Worth, TX 76134 $179,900 2,536 sq. ft. 5,663 sq. ft. $71
2017-06-06 Single Family Contemporary/Modern 8751 Gray Fox Court Fort Worth, TX 76123 $169,000 2,365 sq. ft. 5,663 sq. ft. $71
2017-06-06 Single Family Traditional 1125 Brownford Drive Fort Worth, TX 76028 $195,000 1,818 sq. ft. 6,534 sq. ft. $107
2017-06-06 Single Family Traditional 4613 Cool Ridge Court Fort Worth, TX 76133 $163,240 2,702 sq. ft. 5,663 sq. ft. $60
2017-06-05 Single Family 4725 Cinnamon Hill Drive Fort Worth, TX 76133 $219,000 2,114 sq. ft. 10,890 sq. ft. $104
2017-06-05 Single Family 3145 Ryan Avenue Fort Worth, TX 76110 $79,900 780 sq. ft. 6,098 sq. ft. $102
2017-06-05 Single Family Traditional 1005 Drew Street Fort Worth, TX 76110 $116,000 1,518 sq. ft. 6,970 sq. ft. $76
2017-06-05 Single Family Ranch 4732 Auburn Ridge Drive Fort Worth, TX 76123 $205,000 1,936 sq. ft. 8,712 sq. ft. $106
2017-06-05 Single Family 8028 Morning Lane Fort Worth, TX 76123 $259,900 2,691 sq. ft. 9,583 sq. ft. $97
2017-06-05 Single Family Traditional 5604 Wessex Avenue Fort Worth, TX 76133 $174,900 1,632 sq. ft. 11,326 sq. ft. $107
2017-06-05 Single Family 4908 Shell Ridge Drive Fort Worth, TX 76133 $199,999 2,702 sq. ft. 6,970 sq. ft. $74
2017-06-05 Single Family Traditional 5448 Sierra Ridge Drive Fort Worth, TX 76123 $234,500 2,000 sq. ft. 6,534 sq. ft. $117
2017-06-05 Single Family 1000 Elmwood Avenue Fort Worth, TX 76104 $30,000 1,068 sq. ft. 6,098 sq. ft. $28
2017-06-05 Single Family Traditional 6140 Forest Highlands Drive Fort Worth, TX 76132 $1,200,000 5,996 sq. ft. 22,216 sq. ft. $200
2017-06-04 Single Family A-Frame 1318 Evans Avenue Fort Worth, TX 76104 $85,000 896 sq. ft. 4,356 sq. ft. $95
2017-06-04 Single Family Traditional 4809 Summer Oaks Lane Fort Worth, TX 76123 $236,500 2,689 sq. ft. 5,663 sq. ft. $88
2017-06-04 Single Family Ranch 3925 Teaberry Lane Fort Worth, TX 76133 $155,000 1,649 sq. ft. 6,534 sq. ft. $94
2017-06-04 Single Family 1331 Maddox Avenue Fort Worth, TX 76104 $43,000 1,388 sq. ft. 6,098 sq. ft. $31
2017-06-03 Single Family Traditional 325 Arbor Glen Drive Fort Worth, TX 76140 $199,000 2,089 sq. ft. 6,534 sq. ft. $95
2017-06-03 Single Family Traditional 3357 Park Ridge Boulevard Fort Worth, TX 76109 $529,000 2,794 sq. ft. 6,970 sq. ft. $189
2017-06-03 Single Family Traditional 6613 Welch Avenue Fort Worth, TX 76133 $199,900 2,261 sq. ft. 10,454 sq. ft. $88
2017-06-03 Single Family 1340 Royster Road Fort Worth, TX 76134 $145,000 2,023 sq. ft. 10,890 sq. ft. $72
2017-06-03 Single Family Traditional 8409 Summer Park Drive Fort Worth, TX 76123 $289,000 3,640 sq. ft. 7,841 sq. ft. $79
2017-06-03 Single Family 1428 Brownford Drive Fort Worth, TX 76028 $209,000 2,098 sq. ft. 12,632 sq. ft. $100
2017-06-03 Single Family 4516 Shady Hollow Drive Fort Worth, TX 76123 $205,000 2,538 sq. ft. 6,970 sq. ft. $81
2017-06-03 Single Family Early American 3221 Greene Avenue Fort Worth, TX 76109 $349,900 1,520 sq. ft. 6,098 sq. ft. $230
2017-06-03 Single Family 8628 Snowdrop Court Fort Worth, TX 76123 $289,900 2,848 sq. ft. 7,405 sq. ft. $102
2017-06-03 Single Family Traditional 2808 Loop 820 Fort Worth, TX 76133 $147,500 1,347 sq. ft. 8,712 sq. ft. $110
2017-06-02 Single Family 4617 Cool Ridge Court Fort Worth, TX 76133 $210,528 2,964 sq. ft. 5,227 sq. ft. $71
2017-06-02 Single Family Contemporary/Modern 1217 Dublin Drive Fort Worth, TX 76134 $144,900 1,805 sq. ft. 8,712 sq. ft. $80
2017-06-02 Single Family Traditional 2629 Boyd Avenue Fort Worth, TX 76109 $750,000 3,264 sq. ft. 13,068 sq. ft. $230
2017-06-02 Single Family Traditional 7900 Daystar Drive Fort Worth, TX 76123 $229,900 2,694 sq. ft. 10,019 sq. ft. $85
2017-06-02 Single Family Traditional 5424 Summer Meadows Drive Fort Worth, TX 76123 $298,500 3,506 sq. ft. 7,841 sq. ft. $85
2017-06-02 Single Family Traditional 7217 Water Meadows Drive Fort Worth, TX 76123 $213,900 1,854 sq. ft. 6,534 sq. ft. $115
2017-06-02 Single Family 2500 Dahlia Drive Fort Worth, TX 76123 $134,900 1,424 sq. ft. 8,276 sq. ft. $95
2017-06-02 Single Family Traditional 529 Fairbrook Lane Fort Worth, TX 76140 $179,900 1,940 sq. ft. 6,098 sq. ft. $93
2017-06-02 Single Family Ranch 8201 Cedarcrest Lane Fort Worth, TX 76123 $175,000 2,060 sq. ft. 10,454 sq. ft. $85
2017-06-02 Single Family Traditional 4705 Sleepy Ridge Circle Fort Worth, TX 76133 $174,900 1,390 sq. ft. 5,663 sq. ft. $126
2017-06-02 Single Family Traditional 3412 Misty Valley Drive Fort Worth, TX 76123 $135,000 1,547 sq. ft. 6,098 sq. ft. $87
2017-06-02 Single Family Colonial 4767 Overton Woods Drive Fort Worth, TX 76109 $1,175,000 5,303 sq. ft. 14,375 sq. ft. $222
2017-06-02 Single Family Traditional 4409 Rota Circle Fort Worth, TX 76133 $252,500 2,795 sq. ft. 12,197 sq. ft. $90
2017-06-02 Single Family Traditional 7335 Tree Ridge Court Fort Worth, TX 76133 $155,500 1,688 sq. ft. 6,098 sq. ft. $92
2017-06-02 Single Family Traditional 908 Edney Street Fort Worth, TX 76115 $95,000 978 sq. ft. 8,276 sq. ft. $97
2017-06-02 Single Family Traditional 2501 Galemeadow Drive Fort Worth, TX 76123 $159,900 2,178 sq. ft. 6,534 sq. ft. $73
2017-06-02 Single Family Traditional 6920 Day Drive Fort Worth, TX 76132 $189,000 1,841 sq. ft. 6,534 sq. ft. $103
2017-06-02 Single Family Traditional 3621 Rogers Avenue Fort Worth, TX 76109 $435,000 2,118 sq. ft. 10,890 sq. ft. $205
2017-06-02 Single Family 6712 Canyon Crest Drive Fort Worth, TX 76132 $260,000 2,801 sq. ft. 8,276 sq. ft. $93
2017-06-02 Single Family 7109 Laurelhill Court Fort Worth, TX 76133 $178,000 1,808 sq. ft. 8,276 sq. ft. $98
2017-06-02 Single Family 6729 Creek Drive Fort Worth, TX 76133 $88,000 1,250 sq. ft. 3,485 sq. ft. $70
2017-06-02 Single Family Traditional 3001 Meadowmoor Street Fort Worth, TX 76133 $129,900 1,490 sq. ft. 5,663 sq. ft. $87
2017-06-02 Single Family Traditional 352 Allenwood Drive Fort Worth, TX 76134 $175,000 2,610 sq. ft. 6,970 sq. ft. $67
2017-06-02 Single Family Traditional 8401 Tallahassee Lane Fort Worth, TX 76123 $158,900 1,427 sq. ft. 5,663 sq. ft. $111
2017-06-01 Single Family Traditional 4561 Marguerite Lane Fort Worth, TX 76123 $259,000 3,102 sq. ft. 5,663 sq. ft. $83
2017-06-01 Single Family Craftsman 2625 Adams Street Fort Worth, TX 76110 $785,000 2,796 sq. ft. 16,988 sq. ft. $281
2017-06-01 Single Family Traditional 7409 Darien Street Fort Worth, TX 76140 $123,000 1,162 sq. ft. 7,841 sq. ft. $106
2017-06-01 Single Family 900 Cantey Street Fort Worth, TX 76104 $80,000 1,876 sq. ft. 6,098 sq. ft. $43
2017-06-01 Single Family Traditional 3933 Silver Springs Drive Fort Worth, TX 76123 $169,900 1,779 sq. ft. 8,276 sq. ft. $96
2017-06-01 Single Family Traditional 6136 Wrigley Way Fort Worth, TX 76133 $199,900 2,381 sq. ft. 12,197 sq. ft. $84
2017-06-01 Single Family Traditional 8748 Stonebriar Lane Fort Worth, TX 76123 $159,900 2,134 sq. ft. 5,227 sq. ft. $75
2017-06-01 Single Family 3820 Wedgworth Road Fort Worth, TX 76133 $165,000 1,397 sq. ft. 7,405 sq. ft. $118
2017-06-01 Single Family Craftsman 2538 Cockrell Avenue Fort Worth, TX 76109 $520,000 2,437 sq. ft. 7,841 sq. ft. $213
2017-06-01 Single Family Tudor 2937 5th Avenue Fort Worth, TX 76110 $425,000 2,638 sq. ft. 15,682 sq. ft. $161
2017-06-01 Single Family Traditional 8024 Sunscape Lane Fort Worth, TX 76123 $249,000 2,750 sq. ft. 8,276 sq. ft. $91
2017-06-01 Single Family Traditional 4352 Lake Stone Trail Fort Worth, TX 76123 $256,500 3,333 sq. ft. 6,534 sq. ft. $77
2017-06-01 Single Family Traditional 6425 Wrigley Way Fort Worth, TX 76133 $199,000 1,959 sq. ft. 12,197 sq. ft. $102
2017-06-01 Single Family Traditional 6820 Coldwater Canyon Road Fort Worth, TX 76132 $173,500 1,788 sq. ft. 6,098 sq. ft. $97
2017-06-01 Single Family Early American; Victorian 3145 Jennings Avenue Fort Worth, TX 76110 $135,000 1,320 sq. ft. 7,405 sq. ft. $102
2017-05-31 Single Family 2627 Woodmont Trail Fort Worth, TX 76133 $70,000 1,064 sq. ft. 3,485 sq. ft. $66
2017-05-31 Single Family Traditional 4004 Horizon Place Fort Worth, TX 76133 $180,000 1,874 sq. ft. 6,970 sq. ft. $96
2017-05-31 Single Family Ranch 1505 Sunburst Drive Fort Worth, TX 76140 $159,900 1,363 sq. ft. 5,663 sq. ft. $117
2017-05-31 Single Family Traditional 616 Noble Grove Lane Fort Worth, TX 76140 $158,358 1,685 sq. ft. 5,663 sq. ft. $94
2017-05-31 Single Family Traditional 3801 Harlanwood Drive Fort Worth, TX 76109 $499,000 2,107 sq. ft. 12,197 sq. ft. $237
2017-05-31 Single Family Ranch 900 Spanish Bay Fort Worth, TX 76028 $349,000 2,613 sq. ft. 13,504 sq. ft. $134
2017-05-31 Single Family Traditional 2612 Highview Terrace Fort Worth, TX 76109 $450,000 2,096 sq. ft. 9,583 sq. ft. $215
2017-05-31 Single Family 5433 Sierra Ridge Drive Fort Worth, TX 76123 $324,350 2,896 sq. ft. 6,534 sq. ft. $112
2017-05-30 Single Family Fort Worth, TX $129,900 1,299 sq. ft. 6,534 sq. ft. $100
2017-05-30 Single Family Traditional 4108 Ranier Court Fort Worth, TX 76109 $1,200,000 5,066 sq. ft. 33,977 sq. ft. $237
2017-05-30 Single Family Traditional 4637 Foxfire Way Fort Worth, TX 76133 $254,900 2,283 sq. ft. 13,068 sq. ft. $112
2017-05-30 Single Family Traditional 1112 Sunderland Lane Fort Worth, TX 76134 $168,990 1,844 sq. ft. 4,792 sq. ft. $92
2017-05-30 Single Family Traditional 956 Thomas Crossing Drive Fort Worth, TX 76028 $299,999 2,418 sq. ft. 11,761 sq. ft. $124
2017-05-30 Single Family English 3225 Wabash Avenue Fort Worth, TX 76109 $376,000 1,700 sq. ft. 6,098 sq. ft. $221
2017-05-30 Single Family Traditional 5209 Quail Feather Drive Fort Worth, TX 76123 $244,900 2,745 sq. ft. 9,583 sq. ft. $89
2017-05-30 Single Family Traditional 3909 Winter Springs Drive Fort Worth, TX 76123 $185,000 1,728 sq. ft. 7,405 sq. ft. $107
2017-05-30 Single Family Traditional 2533 Creekwood Lane Fort Worth, TX 76123 $135,000 1,338 sq. ft. 5,663 sq. ft. $101
2017-05-29 Single Family Traditional 2601 Clarks Mill Lane Fort Worth, TX 76123 $215,000 2,402 sq. ft. 5,663 sq. ft. $90
2017-05-29 Single Family Traditional 417 Elk Run Drive Fort Worth, TX 76140 $179,900 2,035 sq. ft. 5,663 sq. ft. $88
2017-05-29 Single Family Traditional 7724 Grassland Drive Fort Worth, TX 76133 $219,500 2,686 sq. ft. 7,841 sq. ft. $82
2017-05-29 Single Family 1308 Elva Warren Street Fort Worth, TX 76115 $105,000 896 sq. ft. 16,553 sq. ft. $117
2017-05-29 Single Family Craftsman 1251 New York Avenue Fort Worth, TX 76104 $110,000 1,222 sq. ft. 7,405 sq. ft. $90
2017-05-27 Single Family Ranch 4336 Gorman Drive Fort Worth, TX 76132 $225,000 2,204 sq. ft. 12,197 sq. ft. $102
2017-05-27 Single Family Ranch 4309 Sarita Drive Fort Worth, TX 76109 $543,000 2,872 sq. ft. 16,117 sq. ft. $189
2017-05-27 Single Family Traditional 6950 Foxridge Court Fort Worth, TX 76133 $224,500 2,710 sq. ft. 12,197 sq. ft. $83
2017-05-27 Single Family 2813 Covert Avenue Fort Worth, TX 76133 $154,000 1,556 sq. ft. 9,148 sq. ft. $99
2017-05-26 Single Family Contemporary/Modern; Traditional 4017 Inwood Road Fort Worth, TX 76109 $725,000 3,993 sq. ft. 11,761 sq. ft. $182
2017-05-26 Single Family 2904 Grove Street Fort Worth, TX 76104 $120,000 1,575 sq. ft. 6,098 sq. ft. $76
2017-05-26 Single Family Traditional 2512 Jones Street Fort Worth, TX 76104 $89,900 1,242 sq. ft. 5,663 sq. ft. $72
2017-05-26 Single Family Traditional 7500 Aspen Wood Circle Fort Worth, TX 76132 $289,900 2,803 sq. ft. 10,890 sq. ft. $103
2017-05-26 Single Family Craftsman 2252 6th Avenue Fort Worth, TX 76110 $439,000 2,480 sq. ft. 6,970 sq. ft. $177
2017-05-26 Single Family Traditional 7944 Branch Hollow Trail Fort Worth, TX 76123 $249,900 2,687 sq. ft. 6,098 sq. ft. $93
2017-05-26 Single Family Ranch 2508 Willing Avenue Fort Worth, TX 76110 $315,000 1,754 sq. ft. 10,454 sq. ft. $180
2017-05-26 Single Family Traditional 8237 French Quarter Lane Fort Worth, TX 76123 $149,900 1,776 sq. ft. 5,227 sq. ft. $84
2017-05-26 Single Family Traditional 4240 Westmont Court Fort Worth, TX 76109 $350,000 2,167 sq. ft. 11,326 sq. ft. $162
2017-05-26 Single Family Traditional 1208 Doe Meadow Drive Fort Worth, TX 76028 $189,900 1,818 sq. ft. 6,098 sq. ft. $104
2017-05-26 Single Family Traditional 1008 Merion Drive Fort Worth, TX 76028 $362,504 2,773 sq. ft. 9,148 sq. ft. $131
2017-05-26 Single Family Traditional 1012 Merion Drive Fort Worth, TX 76028 $407,316 3,354 sq. ft. 9,148 sq. ft. $121
2017-05-26 Single Family Traditional 1013 Merion Drive Fort Worth, TX 76028 $422,985 3,870 sq. ft. 9,148 sq. ft. $109
2017-05-26 Single Family Craftsman 1711 Henderson Street Fort Worth, TX 76110 $275,000 1,440 sq. ft. 4,356 sq. ft. $191
2017-05-25 Single Family Traditional 13833 Riviera Drive Fort Worth, TX 76028 $350,000 2,699 sq. ft. 9,583 sq. ft. $130
2017-05-25 Single Family Traditional 3808 Fairhaven Drive Fort Worth, TX 76123 $137,500 1,392 sq. ft. 6,534 sq. ft. $99
2017-05-25 Single Family Traditional 4416 Ranch View Road Fort Worth, TX 76109 $675,000 2,667 sq. ft. 14,375 sq. ft. $253
2017-05-25 Single Family Traditional 1210 Richmond Avenue Fort Worth, TX 76110 $399,000 2,392 sq. ft. 5,663 sq. ft. $167
2017-05-25 Single Family Traditional 3909 Willow Way Road Fort Worth, TX 76133 $155,000 1,442 sq. ft. 7,841 sq. ft. $107
2017-05-25 Single Family Traditional 2236 Huntington Lane Fort Worth, TX 76110 $724,900 3,208 sq. ft. 12,197 sq. ft. $226
2017-05-25 Single Family Traditional 4629 Marguerite Lane Fort Worth, TX 76123 $225,000 2,609 sq. ft. 6,970 sq. ft. $86
2017-05-25 Single Family Traditional 3712 Biddison Street Fort Worth, TX 76109 $795,000 4,281 sq. ft. 13,068 sq. ft. $186
2017-05-25 Single Family 1828 Christopher Drive Fort Worth, TX 76140 $161,900 1,642 sq. ft. 7,405 sq. ft. $99
2017-05-25 Single Family 3813 Wosley Drive Fort Worth, TX 76133 $245,000 2,572 sq. ft. 16,988 sq. ft. $95
2017-05-25 Single Family Traditional 6727 Creek Drive Fort Worth, TX 76133 $99,999 1,112 sq. ft. 3,485 sq. ft. $90
2017-05-25 Single Family Traditional 2612 Forest Park Boulevard Fort Worth, TX 76110 $190,000 1,150 sq. ft. 6,098 sq. ft. $165
2017-05-25 Single Family Traditional 4948 Sunset Ridge Drive Fort Worth, TX 76123 $189,000 1,820 sq. ft. 6,098 sq. ft. $104
2017-05-25 Single Family Traditional 8737 Hunters Point Way Fort Worth, TX 76123 $189,900 2,310 sq. ft. 5,227 sq. ft. $82
2017-05-25 Single Family 5313 Rutland Avenue Fort Worth, TX 76133 $219,900 2,160 sq. ft. 10,019 sq. ft. $102
2017-05-25 Single Family 5329 Hensley Drive Fort Worth, TX 76134 $79,900 1,325 sq. ft. 7,841 sq. ft. $60
2017-05-25 Single Family Ranch 5300 Post Ridge Drive Fort Worth, TX 76123 $199,950 1,819 sq. ft. 6,534 sq. ft. $110
2017-05-24 Single Family Traditional 6301 Davis Road Fort Worth, TX 76140 $459,900 3,178 sq. ft. 63,598 sq. ft. $145
2017-05-24 Single Family Traditional 6404 Fianna Hills Drive Fort Worth, TX 76132 $335,000 2,376 sq. ft. 12,632 sq. ft. $141
2017-05-24 Single Family Traditional 4628 Saldana Drive Fort Worth, TX 76133 $220,000 2,128 sq. ft. 11,326 sq. ft. $103
2017-05-24 Single Family Traditional 7509 Heathrow Court Fort Worth, TX 76123 $155,000 1,898 sq. ft. 7,841 sq. ft. $82
2017-05-24 Single Family 4416 Summercrest Court Fort Worth, TX 76109 $699,000 3,621 sq. ft. 13,504 sq. ft. $193
2017-05-24 Single Family 217 Fogg Street Fort Worth, TX 76110 $115,000 1,048 sq. ft. 6,098 sq. ft. $110
2017-05-24 Single Family Traditional 5712 Trail Lake Drive Fort Worth, TX 76133 $132,500 2,026 sq. ft. 10,019 sq. ft. $65
2017-05-24 Single Family Craftsman; Traditional 1610 5th Avenue Fort Worth, TX 76104 $268,000 1,419 sq. ft. 4,356 sq. ft. $189
2017-05-23 Single Family Contemporary/Modern 9013 Old Clydesdale Drive Fort Worth, TX 76123 $180,000 3,324 sq. ft. 5,663 sq. ft. $54
2017-05-23 Single Family Traditional 6324 Arrowhead Road Fort Worth, TX 76132 $699,800 4,393 sq. ft. 24,829 sq. ft. $159
2017-05-23 Single Family 3812 Gordon Avenue Fort Worth, TX 76110 $150,000 1,131 sq. ft. 6,970 sq. ft. $133
2017-05-23 Single Family Traditional 3417 Stadium Drive Fort Worth, TX 76109 $439,000 2,210 sq. ft. 8,276 sq. ft. $199
2017-05-23 Single Family Traditional 5504 Old Orchard Drive Fort Worth, TX 76123 $169,900 1,693 sq. ft. 5,663 sq. ft. $100
2017-05-23 Single Family 1416 Arlington Avenue Fort Worth, TX 76104 $37,500 972 sq. ft. 6,534 sq. ft. $39
2017-05-22 Single Family Traditional 3312 Steamboat Drive Fort Worth, TX 76123 $175,000 2,164 sq. ft. 10,019 sq. ft. $81
2017-05-22 Single Family 4316 Wedgmont Circle Fort Worth, TX 76133 $199,900 2,056 sq. ft. 3,920 sq. ft. $97
2017-05-22 Single Family Ranch 6032 Wheaton Drive Fort Worth, TX 76133 $155,000 1,394 sq. ft. 9,583 sq. ft. $111
2017-05-21 Single Family Traditional 404 Arbor Glen Court Fort Worth, TX 76140 $199,900 2,912 sq. ft. 7,405 sq. ft. $69
2017-05-21 Single Family 7309 Lea Place Fort Worth, TX 76140 $136,900 1,423 sq. ft. 6,534 sq. ft. $96
2017-05-20 Single Family 4701 Poplar Ridge Drive Fort Worth, TX 76123 $205,000 2,362 sq. ft. 7,841 sq. ft. $87
2017-05-20 Single Family 2553 Forest Creek Drive Fort Worth, TX 76123 $158,000 1,801 sq. ft. 5,663 sq. ft. $88
2017-05-20 Single Family Traditional 3904 German Pointer Way Fort Worth, TX 76123 $185,000 3,075 sq. ft. 5,663 sq. ft. $60
2017-05-19 Single Family Ranch 4230 Rendon Road Fort Worth, TX 76140 $465,000 2,698 sq. ft. 260,924 sq. ft. $172
2017-05-19 Single Family Traditional 2048 Graham Ranch Road Fort Worth, TX 76134 $150,000 1,511 sq. ft. 5,227 sq. ft. $99
2017-05-19 Single Family 2710 Greene Avenue Fort Worth, TX 76109 $659,000 2,505 sq. ft. 7,841 sq. ft. $263
2017-05-19 Single Family 4375 Rota Circle Fort Worth, TX 76133 $219,000 2,694 sq. ft. 11,761 sq. ft. $81
2017-05-19 Single Family Traditional 4157 Alava Drive Fort Worth, TX 76133 $229,000 2,114 sq. ft. 10,454 sq. ft. $108
2017-05-19 Single Family Traditional 8120 Cutter Hill Avenue Fort Worth, TX 76134 $150,000 1,697 sq. ft. 6,534 sq. ft. $88
2017-05-19 Single Family 3701 Misty Meadow Drive Fort Worth, TX 76133 $149,900 2,094 sq. ft. 7,841 sq. ft. $72
2017-05-19 Single Family Traditional 1321 Royster Road Fort Worth, TX 76134 $115,000 1,796 sq. ft. 8,712 sq. ft. $64
2017-05-19 Single Family 8316 Meadow Sweet Lane Fort Worth, TX 76123 $329,000 3,311 sq. ft. 6,534 sq. ft. $99
2017-05-19 Single Family Traditional 4632 Cinnamon Hill Drive Fort Worth, TX 76133 $223,500 2,058 sq. ft. 9,583 sq. ft. $109
2017-05-19 Single Family Mid-Century Modern 3954 Farris Court Fort Worth, TX 76133 $132,500 1,340 sq. ft. 6,534 sq. ft. $99
2017-05-19 Single Family Traditional 4712 Darla Drive Fort Worth, TX 76132 $135,000 1,858 sq. ft. 8,712 sq. ft. $73
2017-05-19 Single Family 4117 Winfield Avenue Fort Worth, TX 76109 $174,999 1,254 sq. ft. 9,583 sq. ft. $140
2017-05-19 Single Family Contemporary/Modern; Mid-Century Modern; Split Level 3501 Autumn Drive Fort Worth, TX 76109 $775,000 3,876 sq. ft. 19,166 sq. ft. $200
2017-05-19 Single Family Traditional 3005 Fairmeadows Lane Fort Worth, TX 76123 $139,000 1,280 sq. ft. 6,534 sq. ft. $109
2017-05-19 Single Family Traditional 4700 Briarhaven Road Fort Worth, TX 76109 $599,900 3,368 sq. ft. 14,810 sq. ft. $178
2017-05-19 Single Family Craftsman; Traditional 2942 8th Avenue Fort Worth, TX 76110 $364,900 2,339 sq. ft. 6,098 sq. ft. $156
2017-05-18 Single Family Contemporary/Modern 2728 Clovermeadow Drive Fort Worth, TX 76123 $144,000 1,660 sq. ft. 6,534 sq. ft. $87
2017-05-18 Single Family 5024 Stockwhip Drive Fort Worth, TX 76123 $275,000 1,831 sq. ft. $150
2017-05-18 Single Family Traditional 6204 Trail Lake Drive Fort Worth, TX 76133 $179,900 2,300 sq. ft. 12,197 sq. ft. $78
2017-05-18 Single Family Traditional 516 Beechgrove Terrace Fort Worth, TX 76140 $169,500 1,760 sq. ft. 5,227 sq. ft. $96
2017-05-18 Single Family Traditional 9117 Cheswick Drive Fort Worth, TX 76123 $165,000 3,928 sq. ft. 5,663 sq. ft. $42
2017-05-18 Single Family Traditional 3724 Ashford Avenue Fort Worth, TX 76133 $179,900 1,836 sq. ft. 11,761 sq. ft. $98
2017-05-18 Single Family Traditional 150 Revere Drive Fort Worth, TX 76134 $129,900 1,502 sq. ft. 9,148 sq. ft. $86
2017-05-18 Single Family Traditional 7937 Adobe Drive Fort Worth, TX 76123 $230,000 2,889 sq. ft. 4,356 sq. ft. $80
2017-05-18 Single Family Traditional 8760 Polo Drive Fort Worth, TX 76123 $219,900 3,184 sq. ft. 5,227 sq. ft. $69
2017-05-18 Single Family Traditional 3824 Lands End Street Fort Worth, TX 76109 $525,000 3,161 sq. ft. 23,522 sq. ft. $166
2017-05-18 Single Family 2621 Harvest Moon Drive Fort Worth, TX 76123 $179,900 2,188 sq. ft. 6,098 sq. ft. $82
2017-05-18 Single Family Traditional 2322 Stanley Avenue Fort Worth, TX 76110 $595,000 3,070 sq. ft. 8,276 sq. ft. $194
2017-05-18 Single Family 8058 Raleigh Drive Fort Worth, TX 76123 $198,900 2,562 sq. ft. 5,663 sq. ft. $78
2017-05-17 Single Family 8320 French Quarter Lane Fort Worth, TX 76123 $180,000 2,493 sq. ft. 6,098 sq. ft. $72
2017-05-17 Single Family Traditional 8608 Silverbell Lane Fort Worth, TX 76140 $152,500 2,674 sq. ft. 7,841 sq. ft. $57
2017-05-17 Single Family 7509 Pear Tree Lane Fort Worth, TX 76133 $155,000 1,739 sq. ft. 8,276 sq. ft. $89
2017-05-17 Single Family Traditional 3628 Seminary Drive Fort Worth, TX 76109 $225,625 1,820 sq. ft. 11,326 sq. ft. $124
2017-05-17 Single Family Traditional 10641 Flagstaff Run Fort Worth, TX 76140 $155,500 1,686 sq. ft. 6,098 sq. ft. $92
2017-05-17 Single Family Traditional 932 Annie Street Fort Worth, TX 76104 $117,000 1,345 sq. ft. 4,792 sq. ft. $87
2017-05-17 Single Family 3437 Worth Hills Drive Fort Worth, TX 76109 $520,000 2,358 sq. ft. 17,424 sq. ft. $221
2017-05-17 Single Family Mediterranean; Southwestern; Spanish 6721 Foxpointe Road Fort Worth, TX 76132 $4,000,000 10,977 sq. ft. 56,628 sq. ft. $364
2017-05-16 Single Family Traditional 332 Sun Meadow Lane Fort Worth, TX 76140 $209,500 3,104 sq. ft. 10,019 sq. ft. $67
2017-05-16 Single Family Traditional 1817 Woodhall Way Fort Worth, TX 76134 $119,900 1,269 sq. ft. 4,356 sq. ft. $94
2017-05-16 Single Family 4113 5th Avenue Fort Worth, TX 76115 $68,000 1,140 sq. ft. 6,098 sq. ft. $60
2017-05-16 Single Family 8365 Meadow Sweet Drive Fort Worth, TX 76123 $334,000 3,159 sq. ft. 5,663 sq. ft. $106
2017-05-16 Single Family 8545 Meadow Sweet Drive Fort Worth, TX 76123 $249,000 1,890 sq. ft. 5,663 sq. ft. $132
2017-05-16 Single Family Southwestern 6900 Wilton Drive Fort Worth, TX 76133 $225,000 2,238 sq. ft. 10,890 sq. ft. $101
2017-05-16 Single Family Traditional 2555 Greene Avenue Fort Worth, TX 76109 $440,000 1,590 sq. ft. 7,841 sq. ft. $277
2017-05-16 Single Family Traditional 3212 Fargo Court Fort Worth, TX 76133 $146,000 1,685 sq. ft. 6,534 sq. ft. $87
2017-05-16 Single Family Traditional 6804 Welch Avenue Fort Worth, TX 76133 $143,000 2,089 sq. ft. 12,632 sq. ft. $68
2017-05-16 Single Family Traditional 5012 Sunwood Circle Fort Worth, TX 76123 $329,000 4,545 sq. ft. 8,276 sq. ft. $72
2017-05-15 Single Family Traditional 3905 Wedgworth Road Fort Worth, TX 76133 $224,000 2,312 sq. ft. 10,019 sq. ft. $97
2017-05-15 Single Family 3716 Wedgway Drive Fort Worth, TX 76133 $199,000 3,856 sq. ft. 13,068 sq. ft. $52
2017-05-15 Single Family Traditional 1121 Doe Meadow Drive Fort Worth, TX 76028 $194,900 1,742 sq. ft. 6,098 sq. ft. $112
2017-05-13 Single Family Traditional 8500 Auburn Drive Fort Worth, TX 76123 $215,000 3,090 sq. ft. 6,970 sq. ft. $70
2017-05-13 Single Family 1207 Minden Street Fort Worth, TX 76115 $160,000 928 sq. ft. 12,632 sq. ft. $172
2017-05-13 Single Family Traditional 7620 Blossom Drive Fort Worth, TX 76133 $169,900 1,781 sq. ft. 6,534 sq. ft. $95
2017-05-13 Single Family 1257 Colvin Street Fort Worth, TX 76104 $37,900 768 sq. ft. 6,098 sq. ft. $49
2017-05-13 Single Family Traditional 6825 Glen Meadow Drive Fort Worth, TX 76132 $538,000 5,132 sq. ft. 10,890 sq. ft. $105
2017-05-12 Single Family Traditional 2821 Larkin Avenue Fort Worth, TX 76133 $159,900 1,823 sq. ft. 8,276 sq. ft. $88
2017-05-12 Single Family Traditional 4512 Adobe Drive Fort Worth, TX 76123 $267,500 3,154 sq. ft. 5,663 sq. ft. $85
2017-05-12 Single Family 1709 Willow Park Drive Fort Worth, TX 76134 $145,900 1,140 sq. ft. 5,663 sq. ft. $128
2017-05-12 Single Family Traditional 3740 Fairhaven Drive Fort Worth, TX 76123 $187,000 1,947 sq. ft. 6,534 sq. ft. $96
2017-05-12 Single Family Traditional 856 Merion Drive Fort Worth, TX 76028 $299,999 2,479 sq. ft. 8,712 sq. ft. $121
2017-05-12 Single Family Traditional 4005 Trail Lake Drive Fort Worth, TX 76109 $219,900 1,189 sq. ft. 9,583 sq. ft. $185
2017-05-12 Single Family Traditional 3952 Misty Meadow Drive Fort Worth, TX 76133 $169,900 1,810 sq. ft. 8,712 sq. ft. $94
2017-05-12 Single Family Traditional 6828 Savannah Lane Fort Worth, TX 76132 $499,500 4,407 sq. ft. 13,068 sq. ft. $113
2017-05-12 Single Family Ranch; Traditional 8741 Shavano Drive Fort Worth, TX 76123 $180,000 2,015 sq. ft. 6,534 sq. ft. $89
2017-05-12 Single Family Traditional 7200 Church Park Fort Worth, TX 76133 $195,900 1,853 sq. ft. 7,841 sq. ft. $106
2017-05-11 Single Family Traditional 5316 Post Ridge Fort Worth, TX 76123 $242,000 2,268 sq. ft. 6,534 sq. ft. $107
2017-05-11 Single Family Traditional 5005 Pallas Court Fort Worth, TX 76123 $344,500 4,186 sq. ft. 15,682 sq. ft. $82
2017-05-11 Single Family Traditional 12409 Angel Vine Drive Fort Worth, TX 76028 $294,864 2,287 sq. ft. 7,405 sq. ft. $129
2017-05-11 Single Family Ranch 4605 Saldana Drive Fort Worth, TX 76133 $143,000 1,919 sq. ft. 9,583 sq. ft. $75
2017-05-11 Single Family Traditional 12413 Angel Vine Drive Fort Worth, TX 76028 $285,881 2,233 sq. ft. 7,405 sq. ft. $128
2017-05-11 Single Family Traditional 3540 Wedgway Drive Fort Worth, TX 76133 $150,000 1,756 sq. ft. 10,454 sq. ft. $85
2017-05-11 Single Family Traditional 5013 Diamond Springs Court Fort Worth, TX 76123 $172,500 1,880 sq. ft. 13,068 sq. ft. $92
2017-05-11 Single Family Traditional 3216 Steamboat Drive Fort Worth, TX 76123 $199,900 3,044 sq. ft. 6,098 sq. ft. $66
2017-05-11 Single Family Traditional 508 Rock Prairie Lane Fort Worth, TX 76140 $165,000 1,901 sq. ft. 5,663 sq. ft. $87
2017-05-11 Single Family Traditional 3001 Woodlark Drive Fort Worth, TX 76123 $120,000 1,800 sq. ft. 6,098 sq. ft. $67
2017-05-10 Single Family 258 Alden Drive Fort Worth, TX 76134 $159,900 1,652 sq. ft. $97
2017-05-10 Single Family Traditional 4617 Gladiola Lane Fort Worth, TX 76123 $235,000 2,186 sq. ft. 7,405 sq. ft. $108
2017-05-10 Single Family Colonial 2810 Mcpherson Road Fort Worth, TX 76140 $498,900 4,118 sq. ft. 121,097 sq. ft. $121
2017-05-10 Single Family Traditional 5156 Peach Willow Lane Fort Worth, TX 76109 $1,399,000 4,504 sq. ft. 10,019 sq. ft. $311
2017-05-10 Single Family Mediterranean 6609 Harbour Town Lane Fort Worth, TX 76132 $995,000 5,481 sq. ft. 20,909 sq. ft. $182
2017-05-10 Single Family Traditional 3749 Horizon Place Fort Worth, TX 76133 $133,900 1,065 sq. ft. 6,970 sq. ft. $126
2017-05-10 Single Family Traditional 3308 Bilglade Road Fort Worth, TX 76133 $135,000 1,522 sq. ft. 9,583 sq. ft. $89
2017-05-10 Single Family Traditional 6713 Medinah Drive Fort Worth, TX 76132 $649,000 3,660 sq. ft. 6,970 sq. ft. $177
2017-05-10 Single Family Craftsman 1724 5th Avenue Fort Worth, TX 76110 $440,000 2,479 sq. ft. 6,970 sq. ft. $177
2017-05-10 Single Family Traditional 8313 Miami Springs Drive Fort Worth, TX 76123 $179,900 1,963 sq. ft. 6,534 sq. ft. $92
2017-05-09 Single Family Traditional 1345 Allen Avenue Fort Worth, TX 76104 $117,000 1,101 sq. ft. 6,534 sq. ft. $106
2017-05-09 Single Family Craftsman 1508 Lake Street Fort Worth, TX 76104 $339,900 1,680 sq. ft. 3,920 sq. ft. $202
2017-05-09 Single Family Traditional 4509 Shady Hollow Drive Fort Worth, TX 76123 $180,000 2,120 sq. ft. 6,098 sq. ft. $85
2017-05-09 Single Family Traditional 4912 Bellflower Way Fort Worth, TX 76123 $254,900 2,781 sq. ft. 7,405 sq. ft. $92
2017-05-09 Single Family Traditional 12301 Hunters Knoll Drive Fort Worth, TX 76028 $205,000 2,008 sq. ft. 6,970 sq. ft. $102
2017-05-09 Single Family Traditional 7400 Darien Street Fort Worth, TX 76140 $129,500 1,660 sq. ft. 6,970 sq. ft. $78
2017-05-08 Single Family Traditional 2734 College Avenue Fort Worth, TX 76110 $429,500 2,176 sq. ft. 7,405 sq. ft. $197
2017-05-08 Single Family Traditional 1852 Kings Canyon Circle Fort Worth, TX 76134 $133,900 1,486 sq. ft. 5,227 sq. ft. $90
2017-05-08 Single Family Traditional 6868 Lahontan Drive Fort Worth, TX 76132 $729,000 4,041 sq. ft. 18,731 sq. ft. $180
2017-05-08 Single Family Traditional 4216 Inman Court Fort Worth, TX 76109 $449,900 2,503 sq. ft. 17,424 sq. ft. $180
2017-05-08 Single Family Traditional 8416 Cherry Bark Lane Fort Worth, TX 76140 $159,900 1,362 sq. ft. 5,227 sq. ft. $117
2017-05-08 Single Family 2120 Deniro Drive Fort Worth, TX 76134 $175,000 1,851 sq. ft. 4,792 sq. ft. $95
2017-05-08 Single Family Ranch 174 Sycamore School Road Fort Worth, TX 76134 $195,000 3,888 sq. ft. 23,087 sq. ft. $50
2017-05-07 Single Family Tudor 13701 Southern Oaks Drive Fort Worth, TX 76028 $434,900 3,611 sq. ft. 17,424 sq. ft. $120
2017-05-06 Single Family 1124 Whittenburg Drive Fort Worth, TX 76134 $195,900 2,282 sq. ft. 8,712 sq. ft. $86
2017-05-05 Single Family Traditional 3916 Weyburn Drive Fort Worth, TX 76109 $450,000 2,941 sq. ft. 17,424 sq. ft. $153
2017-05-05 Single Family Traditional 5494 Valley Drive Fort Worth, TX 76140 $149,900 1,407 sq. ft. 16,117 sq. ft. $107
2017-05-05 Single Family Traditional 4420 Lodestone Lane Fort Worth, TX 76123 $174,900 1,820 sq. ft. 5,663 sq. ft. $96
2017-05-05 Single Family Traditional 2512 Lipscomb Street Fort Worth, TX 76110 $186,000 1,579 sq. ft. 11,761 sq. ft. $118
2017-05-05 Single Family Traditional 8009 Hosta Way Fort Worth, TX 76123 $190,000 1,969 sq. ft. 5,663 sq. ft. $96
2017-05-05 Single Family Mid-Century Modern 8001 Cleburne Road Fort Worth, TX 76123 $557,900 4,142 sq. ft. 130,680 sq. ft. $135
2017-05-05 Single Family Traditional 3025 Alton Road Fort Worth, TX 76109 $748,500 1,788 sq. ft. 20,473 sq. ft. $419
2017-05-05 Single Family Traditional 4541 Corner Brook Lane Fort Worth, TX 76123 $314,900 3,691 sq. ft. 6,970 sq. ft. $85
2017-05-05 Single Family Traditional 10621 Copperwood Lane Fort Worth, TX 76140 $144,900 1,656 sq. ft. 4,356 sq. ft. $88
2017-05-05 Single Family Traditional 2741 Ryan Avenue Fort Worth, TX 76110 $169,900 954 sq. ft. 6,970 sq. ft. $178
2017-05-05 Single Family Traditional 6024 Casey Court Fort Worth, TX 76140 $194,900 1,654 sq. ft. 45,738 sq. ft. $118
2017-05-05 Single Family Traditional 1328 Nelson Place Fort Worth, TX 76028 $154,900 1,385 sq. ft. 9,583 sq. ft. $112
2017-05-05 Single Family 4432 Lodestone Lane Fort Worth, TX 76123 $164,990 1,736 sq. ft. 5,663 sq. ft. $95
2017-05-05 Single Family Traditional 6413 Windwood Court Fort Worth, TX 76132 $263,000 2,756 sq. ft. 6,534 sq. ft. $95
2017-05-05 Single Family Traditional 5101 Chisholm View Drive Fort Worth, TX 76123 $362,619 3,135 sq. ft. 8,276 sq. ft. $116
2017-05-04 Single Family Traditional 5209 Odessa Avenue Fort Worth, TX 76133 $205,000 2,306 sq. ft. 9,148 sq. ft. $89
2017-05-04 Single Family Mediterranean; Traditional 7021 Shinnecock Hills Drive Fort Worth, TX 76132 $725,000 4,657 sq. ft. 10,454 sq. ft. $156
2017-05-04 Single Family Traditional 2259 Lipscomb Street Fort Worth, TX 76110 $345,000 3,212 sq. ft. 10,019 sq. ft. $107
2017-05-04 Single Family Tudor 2221 Wilshire Boulevard Fort Worth, TX 76110 $499,500 3,166 sq. ft. 8,276 sq. ft. $158
2017-05-04 Single Family Traditional 5024 Whisper Drive Fort Worth, TX 76123 $285,500 3,365 sq. ft. 8,712 sq. ft. $85
2017-05-03 Single Family Traditional 4128 Inwood Road Fort Worth, TX 76109 $629,000 2,861 sq. ft. 16,117 sq. ft. $220
2017-05-03 Single Family 2215 Edwin Street Fort Worth, TX 76110 $545,000 2,790 sq. ft. 9,148 sq. ft. $195
2017-05-03 Single Family Mediterranean 2731 Manorwood Trail Fort Worth, TX 76109 $649,500 3,305 sq. ft. 6,534 sq. ft. $197
2017-05-03 Single Family Traditional 8440 Asheville Lane Fort Worth, TX 76123 $180,000 2,048 sq. ft. 9,148 sq. ft. $88
2017-05-03 Single Family Traditional 12512 Viewpoint Lane Fort Worth, TX 76028 $219,000 2,858 sq. ft. 6,534 sq. ft. $77
2017-05-02 Single Family Traditional 7301 Moon Ridge Court Fort Worth, TX 76133 $209,900 2,938 sq. ft. 10,454 sq. ft. $71
2017-05-02 Single Family Traditional 6736 Medinah Drive Fort Worth, TX 76132 $650,000 3,200 sq. ft. 6,970 sq. ft. $203
2017-05-02 Single Family Traditional 5113 Chisholm View Drive Fort Worth, TX 76123 $352,408 3,385 sq. ft. 8,276 sq. ft. $104
2017-05-01 Single Family Traditional 4128 Alava Drive Fort Worth, TX 76133 $189,000 2,109 sq. ft. 13,068 sq. ft. $90
2017-05-01 Single Family Traditional 3901 Sarita Drive Fort Worth, TX 76109 $579,000 2,580 sq. ft. 17,424 sq. ft. $224
2017-05-01 Single Family 4217 German Pointer Way Fort Worth, TX 76123 $180,000 2,311 sq. ft. 5,663 sq. ft. $78
2017-05-01 Single Family Traditional; Tudor 2876 Manorwood Trail Fort Worth, TX 76109 $559,900 2,617 sq. ft. 10,019 sq. ft. $214
2017-04-30 Single Family Traditional 3409 Rogers Avenue Fort Worth, TX 76109 $419,000 2,115 sq. ft. 7,405 sq. ft. $198
2017-04-29 Single Family Traditional 6409 Windwood Court Fort Worth, TX 76132 $266,500 2,810 sq. ft. 6,534 sq. ft. $95
2017-04-29 Single Family Traditional 5018 Ledgestone Drive Fort Worth, TX 76132 $169,990 1,723 sq. ft. 6,970 sq. ft. $99
2017-04-28 Single Family 5009 Ranch View Road Fort Worth, TX 76109 $899,000 5,476 sq. ft. 19,166 sq. ft. $164
2017-04-28 Single Family Traditional 1112 Lilac Street Fort Worth, TX 76110 $259,900 1,330 sq. ft. 5,227 sq. ft. $195
2017-04-28 Single Family Traditional 6404 Winifred Drive Fort Worth, TX 76133 $150,000 1,854 sq. ft. 10,454 sq. ft. $81
2017-04-28 Single Family Traditional 2313 Stagecoach Street Fort Worth, TX 76133 $129,900 1,360 sq. ft. 4,792 sq. ft. $96